sensor_id;sensor_type;location;lat;lon;timestamp;pressure;altitude;pressure_sealevel;temperature;humidity
6423;BME280;3244;42.708;23.288;2023-03-05T00:00:48;94590.69;;;8.54;74.37
6423;BME280;3244;42.708;23.288;2023-03-05T00:03:15;94577.13;;;8.55;74.39
6423;BME280;3244;42.708;23.288;2023-03-05T00:05:42;94576.00;;;8.39;74.99
6423;BME280;3244;42.708;23.288;2023-03-05T00:08:09;94584.56;;;8.35;75.40
6423;BME280;3244;42.708;23.288;2023-03-05T00:10:35;94575.31;;;8.34;75.62
6423;BME280;3244;42.708;23.288;2023-03-05T00:13:03;94580.00;;;8.44;74.34
6423;BME280;3244;42.708;23.288;2023-03-05T00:15:30;94566.91;;;8.33;75.38
6423;BME280;3244;42.708;23.288;2023-03-05T00:17:57;94579.41;;;8.38;74.81
6423;BME280;3244;42.708;23.288;2023-03-05T00:20:24;94570.94;;;8.39;75.04
6423;BME280;3244;42.708;23.288;2023-03-05T00:22:50;94570.94;;;8.39;75.04
6423;BME280;3244;42.708;23.288;2023-03-05T00:25:17;94567.06;;;8.27;74.90
6423;BME280;3244;42.708;23.288;2023-03-05T00:27:44;94570.31;;;8.32;74.62
6423;BME280;3244;42.708;23.288;2023-03-05T00:30:13;94565.75;;;8.42;74.88
6423;BME280;3244;42.708;23.288;2023-03-05T00:32:40;94559.81;;;8.43;74.16
6423;BME280;3244;42.708;23.288;2023-03-05T00:35:07;94560.38;;;8.51;74.02
6423;BME280;3244;42.708;23.288;2023-03-05T00:37:34;94559.34;;;8.57;73.46
6423;BME280;3244;42.708;23.288;2023-03-05T00:40:00;94556.97;;;8.52;73.27
6423;BME280;3244;42.708;23.288;2023-03-05T00:42:27;94554.75;;;8.43;73.60
6423;BME280;3244;42.708;23.288;2023-03-05T00:44:54;94551.97;;;8.50;73.33
6423;BME280;3244;42.708;23.288;2023-03-05T00:47:22;94539.53;;;8.43;73.53
6423;BME280;3244;42.708;23.288;2023-03-05T00:49:49;94544.13;;;8.32;73.51
6423;BME280;3244;42.708;23.288;2023-03-05T00:52:16;94541.47;;;8.36;73.95
6423;BME280;3244;42.708;23.288;2023-03-05T00:54:42;94543.88;;;8.41;73.11
6423;BME280;3244;42.708;23.288;2023-03-05T00:57:09;94536.13;;;8.44;73.41
6423;BME280;3244;42.708;23.288;2023-03-05T00:59:36;94527.13;;;8.37;73.39
6423;BME280;3244;42.708;23.288;2023-03-05T01:02:03;94533.22;;;8.30;73.18
6423;BME280;3244;42.708;23.288;2023-03-05T01:04:31;94534.84;;;8.32;72.82
6423;BME280;3244;42.708;23.288;2023-03-05T01:06:58;94533.00;;;8.37;72.49
6423;BME280;3244;42.708;23.288;2023-03-05T01:09:25;94525.47;;;8.36;72.90
6423;BME280;3244;42.708;23.288;2023-03-05T01:11:52;94522.06;;;8.37;72.96
6423;BME280;3244;42.708;23.288;2023-03-05T01:14:19;94532.22;;;8.35;73.63
6423;BME280;3244;42.708;23.288;2023-03-05T01:16:46;94526.19;;;8.39;73.04
6423;BME280;3244;42.708;23.288;2023-03-05T01:19:13;94520.31;;;8.39;72.99
6423;BME280;3244;42.708;23.288;2023-03-05T01:21:42;94522.31;;;8.28;73.02
6423;BME280;3244;42.708;23.288;2023-03-05T01:24:09;94520.41;;;8.36;72.66
6423;BME280;3244;42.708;23.288;2023-03-05T01:26:35;94517.00;;;8.37;71.81
6423;BME280;3244;42.708;23.288;2023-03-05T01:29:02;94525.22;;;8.42;71.66
6423;BME280;3244;42.708;23.288;2023-03-05T01:31:29;94504.38;;;8.35;71.94
6423;BME280;3244;42.708;23.288;2023-03-05T01:33:56;94507.69;;;8.37;71.81
6423;BME280;3244;42.708;23.288;2023-03-05T01:36:24;94515.44;;;8.31;71.99
6423;BME280;3244;42.708;23.288;2023-03-05T01:38:53;94510.38;;;8.33;71.77
6423;BME280;3244;42.708;23.288;2023-03-05T01:41:20;94506.22;;;8.30;71.83
6423;BME280;3244;42.708;23.288;2023-03-05T01:43:47;94505.09;;;8.39;71.02
6423;BME280;3244;42.708;23.288;2023-03-05T01:46:26;94503.41;;;8.39;70.30
6423;BME280;3244;42.708;23.288;2023-03-05T01:48:57;94512.28;;;8.25;69.97
6423;BME280;3244;42.708;23.288;2023-03-05T01:51:28;94500.50;;;8.24;70.44
6423;BME280;3244;42.708;23.288;2023-03-05T01:53:58;94513.16;;;8.24;71.12
6423;BME280;3244;42.708;23.288;2023-03-05T01:56:27;94507.22;;;8.25;70.28
6423;BME280;3244;42.708;23.288;2023-03-05T01:58:55;94509.53;;;8.32;69.94
6423;BME280;3244;42.708;23.288;2023-03-05T02:01:29;94508.06;;;8.25;70.46
6423;BME280;3244;42.708;23.288;2023-03-05T02:03:56;94515.75;;;8.22;69.64
6423;BME280;3244;42.708;23.288;2023-03-05T02:06:23;94511.94;;;8.37;69.94
6423;BME280;3244;42.708;23.288;2023-03-05T02:08:50;94510.72;;;8.20;69.78
6423;BME280;3244;42.708;23.288;2023-03-05T02:11:18;94512.38;;;8.22;70.16
6423;BME280;3244;42.708;23.288;2023-03-05T02:13:45;94513.25;;;8.20;69.83
6423;BME280;3244;42.708;23.288;2023-03-05T02:16:12;94513.38;;;8.17;69.87
6423;BME280;3244;42.708;23.288;2023-03-05T02:18:39;94509.97;;;8.18;70.26
6423;BME280;3244;42.708;23.288;2023-03-05T02:21:07;94513.25;;;8.20;69.88
6423;BME280;3244;42.708;23.288;2023-03-05T02:23:36;94513.75;;;8.32;70.28
6423;BME280;3244;42.708;23.288;2023-03-05T02:26:05;94508.69;;;8.32;70.39
6423;BME280;3244;42.708;23.288;2023-03-05T02:28:34;94517.16;;;8.31;70.26
6423;BME280;3244;42.708;23.288;2023-03-05T02:31:08;94514.03;;;8.23;71.13
6423;BME280;3244;42.708;23.288;2023-03-05T02:33:35;94515.44;;;8.31;70.92
6423;BME280;3244;42.708;23.288;2023-03-05T02:36:02;94512.03;;;8.34;70.13
6423;BME280;3244;42.708;23.288;2023-03-05T02:38:30;94510.44;;;8.30;70.45
6423;BME280;3244;42.708;23.288;2023-03-05T02:40:57;94516.38;;;8.29;71.03
6423;BME280;3244;42.708;23.288;2023-03-05T02:43:24;94517.09;;;8.34;70.71
6423;BME280;3244;42.708;23.288;2023-03-05T02:45:51;94517.16;;;8.31;70.99
6423;BME280;3244;42.708;23.288;2023-03-05T02:48:18;94521.88;;;8.16;71.55
6423;BME280;3244;42.708;23.288;2023-03-05T02:50:45;94519.38;;;8.15;72.54
6423;BME280;3244;42.708;23.288;2023-03-05T02:53:12;94528.00;;;8.09;72.88
6423;BME280;3244;42.708;23.288;2023-03-05T02:55:40;94523.72;;;8.11;72.35
6423;BME280;3244;42.708;23.288;2023-03-05T02:58:07;94526.34;;;8.08;71.86
6423;BME280;3244;42.708;23.288;2023-03-05T03:00:34;94524.59;;;8.10;72.13
6423;BME280;3244;42.708;23.288;2023-03-05T03:03:01;94530.47;;;8.11;72.18
6423;BME280;3244;42.708;23.288;2023-03-05T03:05:27;94527.22;;;8.07;72.35
6423;BME280;3244;42.708;23.288;2023-03-05T03:07:54;94529.09;;;8.01;72.06
6423;BME280;3244;42.708;23.288;2023-03-05T03:10:21;94530.34;;;7.89;72.54
6423;BME280;3244;42.708;23.288;2023-03-05T03:12:49;94534.03;;;7.79;72.03
6423;BME280;3244;42.708;23.288;2023-03-05T03:15:16;94527.94;;;7.84;72.24
6423;BME280;3244;42.708;23.288;2023-03-05T03:17:44;94521.97;;;7.87;71.87
6423;BME280;3244;42.708;23.288;2023-03-05T03:20:14;94530.44;;;7.86;71.90
6423;BME280;3244;42.708;23.288;2023-03-05T03:22:42;94514.38;;;7.87;71.69
6423;BME280;3244;42.708;23.288;2023-03-05T03:25:10;94525.66;;;7.77;71.14
6423;BME280;3244;42.708;23.288;2023-03-05T03:27:39;94526.47;;;7.77;72.05
6423;BME280;3244;42.708;23.288;2023-03-05T03:30:10;94522.44;;;7.72;71.43
6423;BME280;3244;42.708;23.288;2023-03-05T03:32:37;94519.13;;;7.70;71.92
6423;BME280;3244;42.708;23.288;2023-03-05T03:35:04;94526.06;;;7.65;72.47
6423;BME280;3244;42.708;23.288;2023-03-05T03:37:31;94532.81;;;7.64;72.13
6423;BME280;3244;42.708;23.288;2023-03-05T03:39:58;94524.66;;;7.55;72.00
6423;BME280;3244;42.708;23.288;2023-03-05T03:42:24;94518.13;;;7.47;72.53
6423;BME280;3244;42.708;23.288;2023-03-05T03:44:51;94526.41;;;7.53;71.82
6423;BME280;3244;42.708;23.288;2023-03-05T03:47:19;94535.69;;;7.52;72.08
6423;BME280;3244;42.708;23.288;2023-03-05T03:49:46;94538.19;;;7.54;71.72
6423;BME280;3244;42.708;23.288;2023-03-05T03:52:13;94540.78;;;7.50;72.36
6423;BME280;3244;42.708;23.288;2023-03-05T03:54:40;94536.78;;;7.43;72.02
6423;BME280;3244;42.708;23.288;2023-03-05T03:57:06;94533.56;;;7.40;73.18
6423;BME280;3244;42.708;23.288;2023-03-05T03:59:33;94534.34;;;7.42;73.05
6423;BME280;3244;42.708;23.288;2023-03-05T04:02:00;94542.78;;;7.41;72.75
6423;BME280;3244;42.708;23.288;2023-03-05T04:04:28;94540.00;;;7.48;72.74
6423;BME280;3244;42.708;23.288;2023-03-05T04:06:55;94534.16;;;7.46;72.58
6423;BME280;3244;42.708;23.288;2023-03-05T04:09:22;94541.00;;;7.43;73.49
6423;BME280;3244;42.708;23.288;2023-03-05T04:11:48;94534.47;;;7.37;72.73
6423;BME280;3244;42.708;23.288;2023-03-05T04:14:15;94518.00;;;7.24;73.04
6423;BME280;3244;42.708;23.288;2023-03-05T04:16:42;94547.09;;;7.37;72.74
6423;BME280;3244;42.708;23.288;2023-03-05T04:19:09;94539.47;;;7.39;72.83
6423;BME280;3244;42.708;23.288;2023-03-05T04:21:37;94541.25;;;7.35;73.03
6423;BME280;3244;42.708;23.288;2023-03-05T04:24:05;94541.09;;;7.41;72.59
6423;BME280;3244;42.708;23.288;2023-03-05T04:26:32;94540.00;;;7.48;72.46
6423;BME280;3244;42.708;23.288;2023-03-05T04:28:59;94543.88;;;7.32;73.00
6423;BME280;3244;42.708;23.288;2023-03-05T04:31:26;94539.00;;;7.26;72.82
6423;BME280;3244;42.708;23.288;2023-03-05T04:33:52;94535.50;;;7.30;73.35
6423;BME280;3244;42.708;23.288;2023-03-05T04:36:19;94537.16;;;7.31;72.54
6423;BME280;3244;42.708;23.288;2023-03-05T04:38:47;94544.63;;;7.36;73.04
6423;BME280;3244;42.708;23.288;2023-03-05T04:41:14;94538.59;;;7.40;72.57
6423;BME280;3244;42.708;23.288;2023-03-05T04:43:40;94531.06;;;7.38;72.29
6423;BME280;3244;42.708;23.288;2023-03-05T04:46:07;94533.50;;;7.41;72.01
6423;BME280;3244;42.708;23.288;2023-03-05T04:48:34;94537.63;;;7.44;71.82
6423;BME280;3244;42.708;23.288;2023-03-05T04:51:00;94529.72;;;7.55;71.19
6423;BME280;3244;42.708;23.288;2023-03-05T04:53:27;94537.31;;;7.55;71.43
6423;BME280;3244;42.708;23.288;2023-03-05T04:55:55;94537.44;;;7.50;71.64
6423;BME280;3244;42.708;23.288;2023-03-05T04:58:26;94531.56;;;7.49;71.87
6423;BME280;3244;42.708;23.288;2023-03-05T05:00:53;94529.97;;;7.45;72.29
6423;BME280;3244;42.708;23.288;2023-03-05T05:03:20;94523.28;;;7.44;72.75
6423;BME280;3244;42.708;23.288;2023-03-05T05:05:53;94532.47;;;7.47;72.45
6423;BME280;3244;42.708;23.288;2023-03-05T05:08:19;94526.59;;;7.46;72.08
6423;BME280;3244;42.708;23.288;2023-03-05T05:10:55;94528.53;;;7.38;72.33
6423;BME280;3244;42.708;23.288;2023-03-05T05:13:22;94536.03;;;7.41;72.51
6423;BME280;3244;42.708;23.288;2023-03-05T05:15:49;94535.34;;;7.36;72.03
6423;BME280;3244;42.708;23.288;2023-03-05T05:18:16;94535.81;;;7.47;71.42
6423;BME280;3244;42.708;23.288;2023-03-05T05:20:43;94531.81;;;7.42;71.33
6423;BME280;3244;42.708;23.288;2023-03-05T05:23:09;94537.88;;;7.36;71.69
6423;BME280;3244;42.708;23.288;2023-03-05T05:25:36;94540.31;;;7.39;71.61
6423;BME280;3244;42.708;23.288;2023-03-05T05:28:04;94545.06;;;7.48;70.70
6423;BME280;3244;42.708;23.288;2023-03-05T05:30:31;94542.97;;;7.63;70.61
6423;BME280;3244;42.708;23.288;2023-03-05T05:32:58;94547.53;;;7.78;70.15
6423;BME280;3244;42.708;23.288;2023-03-05T05:35:24;94542.22;;;7.87;69.82
6423;BME280;3244;42.708;23.288;2023-03-05T05:37:51;94540.78;;;8.05;68.77
6423;BME280;3244;42.708;23.288;2023-03-05T05:40:18;94540.50;;;8.14;68.18
6423;BME280;3244;42.708;23.288;2023-03-05T05:42:45;94545.00;;;8.32;68.12
6423;BME280;3244;42.708;23.288;2023-03-05T05:45:13;94543.63;;;8.47;67.37
6423;BME280;3244;42.708;23.288;2023-03-05T05:47:40;94540.03;;;8.54;67.17
6423;BME280;3244;42.708;23.288;2023-03-05T05:50:07;94543.88;;;8.66;67.18
6423;BME280;3244;42.708;23.288;2023-03-05T05:52:34;94549.09;;;8.84;66.05
6423;BME280;3244;42.708;23.288;2023-03-05T05:55:01;94543.78;;;9.15;65.62
6423;BME280;3244;42.708;23.288;2023-03-05T05:57:27;94540.91;;;9.90;63.67
6423;BME280;3244;42.708;23.288;2023-03-05T05:59:54;94546.44;;;10.64;61.36
6423;BME280;3244;42.708;23.288;2023-03-05T06:02:22;94547.84;;;10.89;59.76
6423;BME280;3244;42.708;23.288;2023-03-05T06:04:49;94549.91;;;10.81;59.00
6423;BME280;3244;42.708;23.288;2023-03-05T06:07:15;94553.31;;;10.62;59.24
6423;BME280;3244;42.708;23.288;2023-03-05T06:09:42;94561.59;;;10.45;59.60
6423;BME280;3244;42.708;23.288;2023-03-05T06:12:09;94557.50;;;10.20;58.73
6423;BME280;3244;42.708;23.288;2023-03-05T06:14:36;94562.94;;;10.11;58.70
6423;BME280;3244;42.708;23.288;2023-03-05T06:17:03;94561.75;;;9.98;60.11
6423;BME280;3244;42.708;23.288;2023-03-05T06:19:31;94560.22;;;9.94;59.07
6423;BME280;3244;42.708;23.288;2023-03-05T06:21:58;94557.06;;;9.89;59.29
6423;BME280;3244;42.708;23.288;2023-03-05T06:24:24;94565.19;;;9.97;58.63
6423;BME280;3244;42.708;23.288;2023-03-05T06:26:51;94557.81;;;9.91;58.18
6423;BME280;3244;42.708;23.288;2023-03-05T06:29:18;94562.13;;;9.89;59.77
6423;BME280;3244;42.708;23.288;2023-03-05T06:31:45;94564.19;;;10.01;59.88
6423;BME280;3244;42.708;23.288;2023-03-05T06:34:11;94578.28;;;10.08;59.50
6423;BME280;3244;42.708;23.288;2023-03-05T06:36:39;94567.91;;;10.14;59.61
6423;BME280;3244;42.708;23.288;2023-03-05T06:39:08;94577.91;;;10.17;59.28
6423;BME280;3244;42.708;23.288;2023-03-05T06:41:35;94575.13;;;10.25;57.76
6423;BME280;3244;42.708;23.288;2023-03-05T06:44:01;94577.41;;;10.31;57.88
6423;BME280;3244;42.708;23.288;2023-03-05T06:46:30;94573.47;;;10.44;57.75
6423;BME280;3244;42.708;23.288;2023-03-05T06:48:59;94576.41;;;10.55;56.57
6423;BME280;3244;42.708;23.288;2023-03-05T06:51:29;94580.03;;;10.70;56.02
6423;BME280;3244;42.708;23.288;2023-03-05T06:54:01;94578.50;;;10.86;56.11
6423;BME280;3244;42.708;23.288;2023-03-05T06:56:29;94579.25;;;11.28;55.29
6423;BME280;3244;42.708;23.288;2023-03-05T06:58:56;94581.09;;;11.82;53.30
6423;BME280;3244;42.708;23.288;2023-03-05T07:01:23;94582.09;;;12.33;51.38
6423;BME280;3244;42.708;23.288;2023-03-05T07:03:50;94575.78;;;12.57;50.64
6423;BME280;3244;42.708;23.288;2023-03-05T07:06:18;94584.94;;;12.78;49.68
6423;BME280;3244;42.708;23.288;2023-03-05T07:08:45;94581.69;;;12.92;48.49
6423;BME280;3244;42.708;23.288;2023-03-05T07:11:15;94588.19;;;12.98;48.32
6423;BME280;3244;42.708;23.288;2023-03-05T07:13:42;94585.94;;;13.26;48.53
6423;BME280;3244;42.708;23.288;2023-03-05T07:16:13;94588.13;;;13.49;47.31
6423;BME280;3244;42.708;23.288;2023-03-05T07:18:40;94583.47;;;13.40;46.55
6423;BME280;3244;42.708;23.288;2023-03-05T07:21:07;94589.06;;;13.14;47.68
6423;BME280;3244;42.708;23.288;2023-03-05T07:23:35;94587.38;;;12.97;48.71
6423;BME280;3244;42.708;23.288;2023-03-05T07:26:04;94587.34;;;13.14;48.32
6423;BME280;3244;42.708;23.288;2023-03-05T07:28:33;94584.66;;;13.35;47.53
6423;BME280;3244;42.708;23.288;2023-03-05T07:31:02;94578.06;;;13.62;46.93
6423;BME280;3244;42.708;23.288;2023-03-05T07:33:29;94579.06;;;14.07;46.69
6423;BME280;3244;42.708;23.288;2023-03-05T07:35:56;94576.66;;;14.65;45.52
6423;BME280;3244;42.708;23.288;2023-03-05T07:38:23;94572.63;;;15.19;43.38
6423;BME280;3244;42.708;23.288;2023-03-05T07:40:50;94566.59;;;15.35;43.41
6423;BME280;3244;42.708;23.288;2023-03-05T07:43:16;94563.50;;;15.29;42.93
6423;BME280;3244;42.708;23.288;2023-03-05T07:45:45;94562.84;;;15.26;42.75
6423;BME280;3244;42.708;23.288;2023-03-05T07:48:14;94566.97;;;15.28;43.05
6423;BME280;3244;42.708;23.288;2023-03-05T07:50:41;94565.97;;;15.31;42.59
6423;BME280;3244;42.708;23.288;2023-03-05T07:53:08;94568.13;;;15.37;42.46
6423;BME280;3244;42.708;23.288;2023-03-05T07:55:41;94570.34;;;15.72;41.79
6423;BME280;3244;42.708;23.288;2023-03-05T07:58:08;94558.13;;;15.89;41.72
6423;BME280;3244;42.708;23.288;2023-03-05T08:00:34;94566.03;;;16.13;41.39
6423;BME280;3244;42.708;23.288;2023-03-05T08:03:02;94569.00;;;15.93;41.90
6423;BME280;3244;42.708;23.288;2023-03-05T08:05:29;94571.63;;;15.64;42.41
6423;BME280;3244;42.708;23.288;2023-03-05T08:07:56;94564.50;;;15.55;41.91
6423;BME280;3244;42.708;23.288;2023-03-05T08:10:23;94572.94;;;15.57;42.01
6423;BME280;3244;42.708;23.288;2023-03-05T08:12:49;94573.09;;;15.83;41.57
6423;BME280;3244;42.708;23.288;2023-03-05T08:15:16;94571.88;;;16.15;40.74
6423;BME280;3244;42.708;23.288;2023-03-05T08:17:43;94558.47;;;15.97;40.93
6423;BME280;3244;42.708;23.288;2023-03-05T08:20:12;94565.72;;;15.91;41.03
6423;BME280;3244;42.708;23.288;2023-03-05T08:22:39;94559.03;;;16.29;40.36
6423;BME280;3244;42.708;23.288;2023-03-05T08:25:07;94553.72;;;17.23;39.36
6423;BME280;3244;42.708;23.288;2023-03-05T08:27:37;94553.59;;;18.47;37.02
6423;BME280;3244;42.708;23.288;2023-03-05T08:30:05;94555.47;;;19.26;35.08
6423;BME280;3244;42.708;23.288;2023-03-05T08:32:32;94546.59;;;19.63;33.86
6423;BME280;3244;42.708;23.288;2023-03-05T08:34:58;94543.41;;;19.82;34.46
6423;BME280;3244;42.708;23.288;2023-03-05T08:37:28;94547.19;;;19.56;34.40
6423;BME280;3244;42.708;23.288;2023-03-05T08:39:55;94545.78;;;18.83;35.90
6423;BME280;3244;42.708;23.288;2023-03-05T08:42:23;94542.28;;;18.49;36.09
6423;BME280;3244;42.708;23.288;2023-03-05T08:44:49;94535.00;;;18.19;36.60
6423;BME280;3244;42.708;23.288;2023-03-05T08:47:17;94533.63;;;17.79;37.80
6423;BME280;3244;42.708;23.288;2023-03-05T08:49:44;94535.78;;;17.59;38.35
6423;BME280;3244;42.708;23.288;2023-03-05T08:52:11;94527.00;;;17.51;37.99
6423;BME280;3244;42.708;23.288;2023-03-05T08:54:39;94521.97;;;17.49;38.08
6423;BME280;3244;42.708;23.288;2023-03-05T08:57:06;94521.88;;;17.38;37.77
6423;BME280;3244;42.708;23.288;2023-03-05T08:59:33;94528.66;;;17.14;38.41
6423;BME280;3244;42.708;23.288;2023-03-05T09:01:59;94528.19;;;16.44;39.37
6423;BME280;3244;42.708;23.288;2023-03-05T09:04:26;94524.78;;;16.04;39.80
6423;BME280;3244;42.708;23.288;2023-03-05T09:06:53;94516.94;;;15.92;40.19
6423;BME280;3244;42.708;23.288;2023-03-05T09:09:20;94515.38;;;16.04;39.72
6423;BME280;3244;42.708;23.288;2023-03-05T09:11:48;94511.63;;;16.22;39.12
6423;BME280;3244;42.708;23.288;2023-03-05T09:14:16;94503.34;;;16.44;39.18
6423;BME280;3244;42.708;23.288;2023-03-05T09:16:43;94502.44;;;16.32;38.29
6423;BME280;3244;42.708;23.288;2023-03-05T09:19:10;94511.03;;;16.31;38.64
6423;BME280;3244;42.708;23.288;2023-03-05T09:21:37;94503.69;;;16.52;38.89
6423;BME280;3244;42.708;23.288;2023-03-05T09:24:04;94492.53;;;16.66;37.87
6423;BME280;3244;42.708;23.288;2023-03-05T09:26:31;94493.97;;;16.83;37.83
6423;BME280;3244;42.708;23.288;2023-03-05T09:28:59;94501.50;;;16.59;36.96
6423;BME280;3244;42.708;23.288;2023-03-05T09:31:25;94499.06;;;16.05;37.74
6423;BME280;3244;42.708;23.288;2023-03-05T09:33:52;94495.19;;;15.58;38.08
6423;BME280;3244;42.708;23.288;2023-03-05T09:36:21;94500.50;;;15.27;39.21
6423;BME280;3244;42.708;23.288;2023-03-05T09:38:48;94486.44;;;15.20;39.28
6423;BME280;3244;42.708;23.288;2023-03-05T09:41:23;94489.53;;;15.25;39.97
6423;BME280;3244;42.708;23.288;2023-03-05T09:44:01;94476.03;;;15.09;39.31
6423;BME280;3244;42.708;23.288;2023-03-05T09:46:38;94464.97;;;14.94;39.45
6423;BME280;3244;42.708;23.288;2023-03-05T09:49:15;94482.69;;;15.11;38.48
6423;BME280;3244;42.708;23.288;2023-03-05T09:51:44;94477.47;;;15.13;37.85
6423;BME280;3244;42.708;23.288;2023-03-05T09:54:15;94463.97;;;14.96;38.28
6423;BME280;3244;42.708;23.288;2023-03-05T09:56:46;94476.78;;;14.82;39.08
6423;BME280;3244;42.708;23.288;2023-03-05T09:59:24;94477.31;;;14.73;38.57
6423;BME280;3244;42.708;23.288;2023-03-05T10:01:56;94475.09;;;14.53;39.83
6423;BME280;3244;42.708;23.288;2023-03-05T10:04:30;94472.16;;;14.45;39.80
6423;BME280;3244;42.708;23.288;2023-03-05T10:07:07;94465.94;;;14.63;39.35
6423;BME280;3244;42.708;23.288;2023-03-05T10:09:42;94465.38;;;14.44;38.93
6423;BME280;3244;42.708;23.288;2023-03-05T10:12:15;94471.81;;;14.51;39.71
6423;BME280;3244;42.708;23.288;2023-03-05T10:14:47;94473.53;;;14.64;39.42
6423;BME280;3244;42.708;23.288;2023-03-05T10:17:31;94468.19;;;14.83;38.15
6423;BME280;3244;42.708;23.288;2023-03-05T10:23:17;94446.75;;;15.27;37.62
6423;BME280;3244;42.708;23.288;2023-03-05T10:25:57;94449.47;;;15.38;36.74
6423;BME280;3244;42.708;23.288;2023-03-05T10:28:37;94439.00;;;15.55;36.40
6423;BME280;3244;42.708;23.288;2023-03-05T10:31:29;94434.97;;;15.65;36.70
6423;BME280;3244;42.708;23.288;2023-03-05T10:34:13;94434.31;;;15.89;36.26
6423;BME280;3244;42.708;23.288;2023-03-05T10:36:56;94413.44;;;15.95;35.64
6423;BME280;3244;42.708;23.288;2023-03-05T10:39:45;94420.97;;;16.23;36.00
6423;BME280;3244;42.708;23.288;2023-03-05T10:42:23;94416.38;;;16.54;34.99
6423;BME280;3244;42.708;23.288;2023-03-05T10:44:52;94405.69;;;16.85;34.45
6423;BME280;3244;42.708;23.288;2023-03-05T10:47:25;94402.09;;;16.88;34.15
6423;BME280;3244;42.708;23.288;2023-03-05T10:49:54;94406.31;;;16.51;34.11
6423;BME280;3244;42.708;23.288;2023-03-05T10:52:26;94399.09;;;16.05;35.27
6423;BME280;3244;42.708;23.288;2023-03-05T10:54:55;94402.72;;;15.76;35.59
6423;BME280;3244;42.708;23.288;2023-03-05T10:57:24;94402.66;;;15.90;35.76
6423;BME280;3244;42.708;23.288;2023-03-05T10:59:52;94394.25;;;15.88;35.27
6423;BME280;3244;42.708;23.288;2023-03-05T11:02:21;94400.94;;;15.63;36.54
6423;BME280;3244;42.708;23.288;2023-03-05T11:04:49;94394.69;;;15.68;36.66
6423;BME280;3244;42.708;23.288;2023-03-05T11:07:41;94394.03;;;15.37;36.01
6423;BME280;3244;42.708;23.288;2023-03-05T11:10:17;94388.34;;;15.19;36.75
6423;BME280;3244;42.708;23.288;2023-03-05T11:12:46;94384.91;;;15.06;36.16
6423;BME280;3244;42.708;23.288;2023-03-05T11:15:30;94374.53;;;14.81;36.63
6423;BME280;3244;42.708;23.288;2023-03-05T11:18:17;94389.16;;;14.50;37.43
6423;BME280;3244;42.708;23.288;2023-03-05T11:20:45;94388.34;;;14.50;37.74
6423;BME280;3244;42.708;23.288;2023-03-05T11:23:13;94378.66;;;14.41;38.50
6423;BME280;3244;42.708;23.288;2023-03-05T11:25:54;94378.13;;;14.50;38.78
6423;BME280;3244;42.708;23.288;2023-03-05T11:28:24;94367.69;;;14.67;38.92
6423;BME280;3244;42.708;23.288;2023-03-05T11:31:00;94364.94;;;14.70;38.68
6423;BME280;3244;42.708;23.288;2023-03-05T11:33:29;94360.50;;;14.45;38.54
6423;BME280;3244;42.708;23.288;2023-03-05T11:36:21;94362.97;;;14.47;39.31
6423;BME280;3244;42.708;23.288;2023-03-05T11:38:53;94354.19;;;14.51;38.79
6423;BME280;3244;42.708;23.288;2023-03-05T11:41:28;94351.63;;;14.65;39.41
6423;BME280;3244;42.708;23.288;2023-03-05T11:43:57;94350.25;;;14.74;39.69
6423;BME280;3244;42.708;23.288;2023-03-05T11:46:25;94351.13;;;14.87;39.11
6423;BME280;3244;42.708;23.288;2023-03-05T11:48:55;94352.16;;;14.84;38.74
6423;BME280;3244;42.708;23.288;2023-03-05T11:51:26;94334.59;;;14.92;38.54
6423;BME280;3244;42.708;23.288;2023-03-05T11:54:02;94323.53;;;14.92;38.19
6423;BME280;3244;42.708;23.288;2023-03-05T11:56:33;94332.06;;;14.78;38.47
6423;BME280;3244;42.708;23.288;2023-03-05T11:59:04;94331.56;;;14.59;38.38
6423;BME280;3244;42.708;23.288;2023-03-05T12:01:35;94319.28;;;14.36;39.04
6423;BME280;3244;42.708;23.288;2023-03-05T12:04:06;94309.88;;;14.36;39.03
6423;BME280;3244;42.708;23.288;2023-03-05T12:06:35;94312.00;;;14.29;40.00
6423;BME280;3244;42.708;23.288;2023-03-05T12:09:10;94314.34;;;14.18;40.59
6423;BME280;3244;42.708;23.288;2023-03-05T12:11:39;94305.94;;;13.88;41.74
6423;BME280;3244;42.708;23.288;2023-03-05T12:14:12;94296.63;;;13.73;40.93
6423;BME280;3244;42.708;23.288;2023-03-05T12:16:45;94300.09;;;13.42;41.00
6423;BME280;3244;42.708;23.288;2023-03-05T12:19:29;94300.78;;;13.14;41.64
6423;BME280;3244;42.708;23.288;2023-03-05T12:21:58;94304.94;;;13.01;41.49
6423;BME280;3244;42.708;23.288;2023-03-05T12:24:39;94299.03;;;12.69;42.14
6423;BME280;3244;42.708;23.288;2023-03-05T12:27:08;94297.41;;;12.52;42.94
6423;BME280;3244;42.708;23.288;2023-03-05T12:29:42;94300.38;;;12.60;42.16
6423;BME280;3244;42.708;23.288;2023-03-05T12:35:38;94283.38;;;12.90;41.85
6423;BME280;3244;42.708;23.288;2023-03-05T12:38:29;94291.63;;;12.80;42.05
6423;BME280;3244;42.708;23.288;2023-03-05T12:41:32;94284.72;;;12.82;42.32
6423;BME280;3244;42.708;23.288;2023-03-05T12:44:17;94273.84;;;12.94;42.86
6423;BME280;3244;42.708;23.288;2023-03-05T12:46:45;94252.97;;;12.72;41.95
6423;BME280;3244;42.708;23.288;2023-03-05T12:49:37;94262.34;;;12.71;42.30
6423;BME280;3244;42.708;23.288;2023-03-05T12:52:12;94265.22;;;12.97;42.10
6423;BME280;3244;42.708;23.288;2023-03-05T12:54:42;94265.91;;;13.30;42.28
6423;BME280;3244;42.708;23.288;2023-03-05T12:57:16;94255.94;;;13.55;40.88
6423;BME280;3244;42.708;23.288;2023-03-05T12:59:47;94252.41;;;13.72;40.52
6423;BME280;3244;42.708;23.288;2023-03-05T13:02:22;94254.56;;;13.64;40.26
6423;BME280;3244;42.708;23.288;2023-03-05T13:04:56;94250.25;;;13.36;40.61
6423;BME280;3244;42.708;23.288;2023-03-05T13:07:25;94250.25;;;13.36;40.68
6423;BME280;3244;42.708;23.288;2023-03-05T13:09:52;94254.44;;;13.37;40.85
6423;BME280;3244;42.708;23.288;2023-03-05T13:12:20;94242.78;;;13.33;40.57
6423;BME280;3244;42.708;23.288;2023-03-05T13:14:57;94255.69;;;13.30;41.24
6423;BME280;3244;42.708;23.288;2023-03-05T13:17:33;94248.41;;;13.38;40.81
6423;BME280;3244;42.708;23.288;2023-03-05T13:20:23;94250.44;;;13.33;40.85
6423;BME280;3244;42.708;23.288;2023-03-05T13:25:55;94246.13;;;13.04;40.58
6423;BME280;3244;42.708;23.288;2023-03-05T13:28:22;94249.00;;;12.98;40.71
6423;BME280;3244;42.708;23.288;2023-03-05T13:30:51;94254.31;;;12.63;42.28
6423;BME280;3244;42.708;23.288;2023-03-05T13:33:23;94250.28;;;12.59;42.63
6423;BME280;3244;42.708;23.288;2023-03-05T13:35:51;94244.63;;;12.54;42.44